Time;durP1;ratioP1;P1;durP2;ratioP2;P2;SDS_P1;SDS_P2;PMS_P1;PMS_P2;Temp;Humidity;BMP_temperature;BMP_pressure;BME280_temperature;BME280_humidity;BME280_pressure;Samples;Min_cycle;Max_cycle;Signal;HPM_P1;HPM_P2
2021/05/01 00:00:44;;;;;;;28.92;20.85;;;10.50;99.90;;;;;;4191650;28;20532;-69
2021/05/01 00:02:45;;;;;;;27.38;20.00;;;10.50;99.90;;;;;;4191708;28;20117;-69
2021/05/01 00:04:46;;;;;;;27.50;20.13;;;10.50;99.90;;;;;;4191487;28;20043;-69
2021/05/01 00:06:46;;;;;;;26.58;19.80;;;10.50;99.90;;;;;;4191402;28;20028;-69
2021/05/01 00:08:47;;;;;;;28.17;20.05;;;10.40;99.90;;;;;;4188559;28;20106;-69
2021/05/01 00:10:48;;;;;;;25.05;18.75;;;10.40;99.90;;;;;;4191369;28;20044;-69
2021/05/01 00:12:49;;;;;;;31.30;21.15;;;10.40;99.90;;;;;;4191042;28;20530;-69
2021/05/01 00:14:49;;;;;;;26.90;19.92;;;10.40;99.90;;;;;;4189772;28;20037;-69
2021/05/01 00:16:50;;;;;;;27.65;20.42;;;10.40;99.90;;;;;;4190749;28;20032;-69
2021/05/01 00:18:52;;;;;;;31.25;22.08;;;10.30;99.90;;;;;;4189641;28;20044;-69
2021/05/01 00:20:52;;;;;;;28.30;19.97;;;10.30;99.90;;;;;;4191672;28;20120;-69
2021/05/01 00:22:53;;;;;;;33.33;22.92;;;10.30;99.90;;;;;;4191441;28;20051;-69
2021/05/01 00:24:54;;;;;;;30.70;22.50;;;10.20;99.90;;;;;;4190865;28;20044;-69
2021/05/01 00:26:54;;;;;;;30.15;21.40;;;10.20;99.90;;;;;;4189586;28;20479;-69
2021/05/01 00:28:55;;;;;;;33.17;23.30;;;10.20;99.90;;;;;;4190151;28;20044;-69
2021/05/01 00:30:55;;;;;;;33.15;23.45;;;10.10;99.90;;;;;;4191803;28;20037;-69
2021/05/01 00:32:57;;;;;;;36.63;24.02;;;10.10;99.90;;;;;;4191487;28;20071;-69
2021/05/01 00:34:58;;;;;;;33.40;23.85;;;10.00;99.90;;;;;;4191551;28;20044;-69
2021/05/01 00:36:58;;;;;;;33.35;23.45;;;10.00;99.90;;;;;;4191317;28;20033;-69
2021/05/01 00:38:59;;;;;;;33.53;22.42;;;10.00;99.90;;;;;;4186736;28;20071;-69
2021/05/01 00:41:00;;;;;;;34.95;24.95;;;10.00;99.90;;;;;;4189765;28;20377;-69
2021/05/01 00:43:00;;;;;;;33.58;24.05;;;9.90;99.90;;;;;;4191639;28;20048;-69
2021/05/01 00:45:03;;;;;;;32.33;23.83;;;9.90;99.90;;;;;;4190414;28;20075;-69
2021/05/01 00:47:04;;;;;;;33.03;22.80;;;9.90;99.90;;;;;;4190615;28;20163;-69
2021/05/01 00:49:05;;;;;;;30.75;22.48;;;9.90;99.90;;;;;;4191376;28;20037;-69
2021/05/01 00:51:05;;;;;;;32.08;22.67;;;9.90;99.90;;;;;;4189937;28;20499;-69
2021/05/01 00:53:06;;;;;;;36.42;24.08;;;9.90;99.90;;;;;;4191897;28;20078;-69
2021/05/01 00:55:08;;;;;;;34.38;22.58;;;9.90;99.90;;;;;;4190684;28;20181;-69
2021/05/01 00:57:10;;;;;;;34.38;24.20;;;9.90;99.90;;;;;;4181811;28;20033;-69
2021/05/01 00:59:11;;;;;;;33.65;24.75;;;9.80;99.90;;;;;;4189948;28;20028;-69
2021/05/01 01:01:17;;;;;;;37.35;25.70;;;9.80;99.90;;;;;;4191727;28;20033;-69
2021/05/01 01:03:17;;;;;;;34.70;24.35;;;9.80;99.90;;;;;;4191482;28;20424;-69
2021/05/01 01:05:18;;;;;;;38.45;26.10;;;9.80;99.90;;;;;;4189498;28;20025;-69
2021/05/01 01:07:19;;;;;;;34.60;24.85;;;9.80;99.90;;;;;;4190199;28;20035;-69
2021/05/01 01:09:19;;;;;;;34.22;25.08;;;9.70;99.90;;;;;;4190737;28;20128;-69
2021/05/01 01:11:20;;;;;;;34.35;25.13;;;9.70;99.90;;;;;;4189747;28;20038;-69
2021/05/01 01:13:21;;;;;;;37.05;24.95;;;9.70;99.90;;;;;;4189496;28;20037;-69
2021/05/01 01:15:27;;;;;;;33.58;24.35;;;9.70;99.90;;;;;;4190977;28;20029;-69
2021/05/01 01:17:27;;;;;;;33.25;23.50;;;9.70;99.90;;;;;;4185176;28;20029;-69
2021/05/01 01:19:28;;;;;;;36.75;25.25;;;9.70;99.90;;;;;;4190563;28;20032;-69
2021/05/01 01:21:29;;;;;;;33.80;24.70;;;9.80;99.90;;;;;;4191430;28;20116;-69
2021/05/01 01:23:30;;;;;;;36.03;24.63;;;9.70;99.90;;;;;;4191391;28;20061;-70
2021/05/01 01:25:31;;;;;;;38.30;26.90;;;9.70;99.90;;;;;;4190866;28;20043;-69
2021/05/01 01:27:31;;;;;;;36.85;26.02;;;9.70;99.90;;;;;;4191559;28;20123;-69
2021/05/01 01:29:33;;;;;;;35.60;24.80;;;9.70;99.90;;;;;;4189917;28;20549;-69
2021/05/01 01:31:34;;;;;;;35.67;24.93;;;9.70;99.90;;;;;;4189590;28;20036;-69
2021/05/01 01:33:36;;;;;;;36.83;27.27;;;9.70;99.90;;;;;;4189914;28;20705;-69
2021/05/01 01:35:38;;;;;;;35.67;25.83;;;9.70;99.90;;;;;;4190612;28;20040;-69
2021/05/01 01:37:45;;;;;;;35.83;25.13;;;9.80;99.90;;;;;;4191145;28;20047;-69
2021/05/01 01:39:45;;;;;;;36.88;25.95;;;9.80;99.90;;;;;;4191455;28;20036;-69
2021/05/01 01:41:46;;;;;;;35.67;25.33;;;9.70;99.90;;;;;;4189650;28;20131;-69
2021/05/01 01:43:46;;;;;;;36.97;26.13;;;9.70;99.90;;;;;;4191093;28;20025;-69
2021/05/01 01:45:47;;;;;;;34.47;24.50;;;9.70;99.90;;;;;;4191260;28;20093;-69
2021/05/01 01:47:48;;;;;;;33.80;24.73;;;9.70;99.90;;;;;;4192283;28;20500;-69
2021/05/01 01:49:48;;;;;;;38.13;26.23;;;9.80;99.90;;;;;;4192593;28;20404;-69
2021/05/01 01:51:49;;;;;;;36.35;24.95;;;9.70;99.90;;;;;;4186771;28;20036;-69
2021/05/01 01:53:50;;;;;;;33.33;23.98;;;9.70;99.90;;;;;;4194339;28;20063;-69
2021/05/01 01:55:52;;;;;;;33.20;24.48;;;9.70;99.90;;;;;;4193982;28;20086;-69
2021/05/01 01:57:53;;;;;;;31.55;23.23;;;9.70;99.90;;;;;;4194406;28;20033;-69
2021/05/01 01:59:53;;;;;;;33.63;24.13;;;9.70;99.90;;;;;;4194096;28;20056;-69
2021/05/01 02:01:54;;;;;;;32.58;23.60;;;9.70;99.90;;;;;;4194307;28;20127;-69
2021/05/01 02:03:55;;;;;;;33.33;24.63;;;9.70;99.90;;;;;;4194196;28;20029;-69
2021/05/01 02:05:56;;;;;;;31.67;23.63;;;9.70;99.90;;;;;;4193634;28;20139;-69
2021/05/01 02:07:56;;;;;;;34.67;24.23;;;9.60;99.90;;;;;;4194023;28;20040;-69
2021/05/01 02:09:57;;;;;;;33.08;23.63;;;9.70;99.90;;;;;;4193915;28;20047;-69
2021/05/01 02:11:58;;;;;;;30.83;22.92;;;9.60;99.90;;;;;;4193776;28;20582;-69
2021/05/01 02:13:58;;;;;;;32.45;23.10;;;9.60;99.90;;;;;;4192681;28;20486;-69
2021/05/01 02:15:59;;;;;;;32.53;23.25;;;9.60;99.90;;;;;;4192689;28;20552;-69
2021/05/01 02:18:01;;;;;;;33.97;23.27;;;9.60;99.90;;;;;;4193748;28;20127;-69
2021/05/01 02:20:03;;;;;;;31.10;22.40;;;9.60;99.90;;;;;;4193134;28;20037;-69
2021/05/01 02:22:04;;;;;;;38.13;24.77;;;9.50;99.90;;;;;;4193592;28;20067;-69
2021/05/01 02:24:05;;;;;;;37.40;25.80;;;9.50;99.90;;;;;;4193413;28;20036;-69
2021/05/01 02:26:06;;;;;;;36.20;24.95;;;9.50;99.90;;;;;;4192899;28;20045;-69
2021/05/01 02:28:06;;;;;;;37.35;26.17;;;9.50;99.90;;;;;;4193511;28;20036;-69
2021/05/01 02:30:10;;;;;;;35.70;25.30;;;9.40;99.90;;;;;;4188694;28;20131;-69
2021/05/01 02:32:10;;;;;;;33.72;25.15;;;9.40;99.90;;;;;;4191451;28;20025;-69
2021/05/01 02:34:11;;;;;;;37.17;24.90;;;9.40;99.90;;;;;;4193097;28;20128;-69
2021/05/01 02:36:12;;;;;;;39.40;26.58;;;9.40;99.90;;;;;;4192771;28;20102;-69
2021/05/01 02:38:12;;;;;;;38.95;27.27;;;9.30;99.90;;;;;;4193579;28;20086;-69
2021/05/01 02:40:15;;;;;;;36.92;25.40;;;9.30;99.90;;;;;;4193309;28;20036;-69
2021/05/01 02:42:16;;;;;;;37.55;25.35;;;9.30;99.90;;;;;;4191348;28;20044;-69
2021/05/01 02:44:17;;;;;;;36.03;24.73;;;9.30;99.90;;;;;;4191679;28;20043;-69
2021/05/01 02:46:18;;;;;;;40.80;27.67;;;9.30;99.90;;;;;;4192023;28;20132;-69
2021/05/01 02:48:18;;;;;;;37.40;25.63;;;9.30;99.90;;;;;;4192698;28;20036;-69
2021/05/01 02:50:19;;;;;;;36.13;25.92;;;9.20;99.90;;;;;;4193234;28;20031;-69
2021/05/01 02:52:20;;;;;;;36.60;27.13;;;9.20;99.90;;;;;;4193036;28;20056;-69
2021/05/01 02:54:21;;;;;;;37.65;27.88;;;9.20;99.90;;;;;;4191475;28;20508;-69
2021/05/01 02:56:21;;;;;;;38.13;26.38;;;9.20;99.90;;;;;;4192935;28;20035;-69
2021/05/01 02:58:22;;;;;;;36.97;27.23;;;9.20;99.90;;;;;;4192891;28;20147;-69
2021/05/01 03:00:25;;;;;;;37.92;27.17;;;9.10;99.90;;;;;;4191476;28;20041;-69
2021/05/01 03:02:25;;;;;;;34.28;24.67;;;9.10;99.90;;;;;;4193120;28;20127;-69
2021/05/01 03:04:26;;;;;;;34.58;24.70;;;9.10;99.90;;;;;;4191605;28;20079;-70
2021/05/01 03:06:26;;;;;;;36.95;25.20;;;9.10;99.90;;;;;;4192267;28;20036;-69
2021/05/01 03:08:27;;;;;;;37.75;27.08;;;9.10;99.90;;;;;;4193278;28;20032;-69
2021/05/01 03:10:29;;;;;;;34.60;24.63;;;9.00;99.90;;;;;;4193247;28;20033;-69
2021/05/01 03:12:30;;;;;;;35.33;24.73;;;9.00;99.90;;;;;;4192399;28;20495;-69
2021/05/01 03:14:31;;;;;;;32.30;23.85;;;9.00;99.90;;;;;;4192110;28;20036;-69
2021/05/01 03:16:31;;;;;;;36.05;24.63;;;8.90;99.90;;;;;;4192272;28;20093;-69
2021/05/01 03:18:32;;;;;;;34.83;25.00;;;8.90;99.90;;;;;;4190879;28;20032;-69
2021/05/01 03:20:32;;;;;;;35.50;24.90;;;8.90;99.90;;;;;;4192520;28;20036;-69
2021/05/01 03:22:33;;;;;;;36.25;25.02;;;8.90;99.90;;;;;;4191282;28;20033;-69
2021/05/01 03:24:34;;;;;;;34.30;22.80;;;8.90;99.90;;;;;;4192187;28;20071;-69
2021/05/01 03:26:35;;;;;;;35.72;24.00;;;8.90;99.90;;;;;;4192908;28;20028;-69
2021/05/01 03:28:36;;;;;;;36.10;22.98;;;8.90;99.90;;;;;;4192409;28;20147;-69
2021/05/01 03:30:36;;;;;;;33.13;24.02;;;8.90;99.90;;;;;;4192301;28;20036;-69
2021/05/01 03:32:38;;;;;;;32.10;23.25;;;8.90;99.90;;;;;;4190560;28;20041;-69
2021/05/01 03:34:38;;;;;;;31.45;22.38;;;8.80;99.90;;;;;;4190767;28;20035;-69
2021/05/01 03:36:39;;;;;;;34.10;23.60;;;8.80;99.90;;;;;;4192476;28;20052;-69
2021/05/01 03:38:39;;;;;;;30.83;22.45;;;8.80;99.90;;;;;;4186039;28;20056;-69
2021/05/01 03:40:40;;;;;;;30.75;21.90;;;8.80;99.90;;;;;;4190358;28;20032;-69
2021/05/01 03:42:41;;;;;;;29.15;21.60;;;8.80;99.90;;;;;;4192061;28;20112;-69
2021/05/01 03:44:41;;;;;;;29.98;21.85;;;8.70;99.90;;;;;;4191509;28;20105;-69
2021/05/01 03:46:42;;;;;;;29.63;21.45;;;8.70;99.90;;;;;;4190759;28;20056;-69
2021/05/01 03:48:43;;;;;;;31.08;22.30;;;8.80;99.90;;;;;;4192613;28;20111;-69
2021/05/01 03:50:43;;;;;;;31.27;22.50;;;8.70;99.90;;;;;;4192806;28;20033;-69
2021/05/01 03:52:44;;;;;;;32.63;23.55;;;8.70;99.90;;;;;;4191078;28;20029;-69
2021/05/01 03:54:45;;;;;;;31.85;23.27;;;8.70;99.90;;;;;;4192077;28;20043;-69
2021/05/01 03:56:45;;;;;;;32.17;23.10;;;8.60;99.90;;;;;;4191086;28;20025;-69
2021/05/01 03:58:46;;;;;;;31.30;22.55;;;8.60;99.90;;;;;;4192195;28;20157;-69
2021/05/01 04:00:47;;;;;;;30.27;21.73;;;8.60;99.90;;;;;;4192389;28;20032;-69
2021/05/01 04:02:47;;;;;;;34.85;22.63;;;8.50;99.90;;;;;;4192318;28;20041;-69
2021/05/01 04:04:48;;;;;;;30.13;22.20;;;8.50;99.90;;;;;;4192241;28;20040;-69
2021/05/01 04:06:49;;;;;;;31.30;22.58;;;8.50;99.90;;;;;;4192684;28;20449;-69
2021/05/01 04:08:49;;;;;;;32.13;22.35;;;8.40;99.90;;;;;;4191011;28;20028;-69
2021/05/01 04:10:50;;;;;;;28.13;20.02;;;8.40;99.90;;;;;;4192071;28;20043;-69
2021/05/01 04:12:50;;;;;;;27.08;18.02;;;8.40;99.90;;;;;;4192160;28;20055;-69
2021/05/01 04:14:51;;;;;;;25.75;18.63;;;8.30;99.90;;;;;;4192388;28;20052;-69
2021/05/01 04:16:52;;;;;;;21.27;15.25;;;8.30;99.90;;;;;;4191774;28;20504;-69
2021/05/01 04:18:52;;;;;;;20.08;15.27;;;8.30;99.90;;;;;;4192558;28;20043;-69
2021/05/01 04:20:53;;;;;;;25.08;17.83;;;8.30;99.90;;;;;;4192154;28;20075;-69
2021/05/01 04:22:53;;;;;;;24.70;16.55;;;8.30;99.90;;;;;;4191865;28;20037;-69
2021/05/01 04:24:54;;;;;;;24.33;17.23;;;8.20;99.90;;;;;;4192272;28;20375;-69
2021/05/01 04:26:55;;;;;;;24.92;18.10;;;8.30;99.90;;;;;;4192692;28;20037;-69
2021/05/01 04:28:57;;;;;;;27.50;18.25;;;8.20;99.90;;;;;;4191794;28;20119;-69
2021/05/01 04:30:57;;;;;;;29.35;20.55;;;8.20;99.90;;;;;;4192750;28;20354;-69
2021/05/01 04:32:58;;;;;;;28.17;19.80;;;8.10;99.90;;;;;;4190296;28;20162;-69
2021/05/01 04:34:59;;;;;;;29.75;21.70;;;8.20;99.90;;;;;;4191688;28;20048;-69
2021/05/01 04:36:59;;;;;;;31.02;21.58;;;8.10;99.90;;;;;;4192807;28;20037;-69
2021/05/01 04:39:00;;;;;;;31.15;22.33;;;8.10;99.90;;;;;;4184219;28;20040;-69
2021/05/01 04:41:01;;;;;;;27.77;20.05;;;8.10;99.90;;;;;;4191820;28;20036;-69
2021/05/01 04:43:04;;;;;;;31.30;20.92;;;8.10;99.90;;;;;;4191963;28;20064;-69
2021/05/01 04:45:05;;;;;;;31.42;21.05;;;8.10;99.90;;;;;;4192291;28;20623;-69
2021/05/01 04:47:05;;;;;;;36.08;23.35;;;8.00;99.90;;;;;;4174334;28;20066;-69
2021/05/01 04:49:07;;;;;;;31.75;22.27;;;8.00;99.90;;;;;;4191698;28;20637;-69
2021/05/01 04:51:08;;;;;;;33.95;22.73;;;8.00;99.90;;;;;;4190664;28;20179;-69
2021/05/01 04:53:09;;;;;;;34.33;22.40;;;8.00;99.90;;;;;;4191842;28;20036;-69
2021/05/01 04:55:16;;;;;;;35.83;23.08;;;8.00;99.90;;;;;;4191856;28;20041;-69
2021/05/01 04:57:17;;;;;;;31.80;21.42;;;8.00;99.90;;;;;;4192332;28;20048;-69
2021/05/01 04:59:18;;;;;;;32.28;22.30;;;8.00;99.90;;;;;;4190742;28;20388;-69
2021/05/01 05:01:18;;;;;;;32.33;21.80;;;8.00;99.90;;;;;;4192204;28;20102;-69
2021/05/01 05:03:19;;;;;;;28.33;19.83;;;8.00;99.90;;;;;;4192183;28;20111;-69
2021/05/01 05:05:20;;;;;;;30.05;21.90;;;8.00;99.90;;;;;;4189972;28;20037;-69
2021/05/01 05:07:20;;;;;;;29.13;20.60;;;8.00;99.90;;;;;;4192259;28;20028;-69
2021/05/01 05:09:21;;;;;;;29.98;20.27;;;8.10;99.90;;;;;;4188756;28;20119;-69
2021/05/01 05:11:21;;;;;;;30.45;20.85;;;8.10;99.90;;;;;;4189973;28;20025;-69
2021/05/01 05:13:24;;;;;;;33.88;22.23;;;8.10;99.90;;;;;;4192185;28;20024;-69
2021/05/01 05:15:24;;;;;;;29.02;20.58;;;8.10;99.90;;;;;;4191762;28;20033;-69
2021/05/01 05:17:25;;;;;;;31.35;21.27;;;8.00;99.90;;;;;;4190196;28;20480;-69
2021/05/01 05:19:26;;;;;;;31.92;22.05;;;8.10;99.90;;;;;;4191917;28;20123;-69
2021/05/01 05:21:26;;;;;;;28.70;20.42;;;8.10;99.90;;;;;;4194653;28;20040;-69
2021/05/01 05:23:28;;;;;;;27.83;19.83;;;8.10;99.90;;;;;;4184044;28;20371;-68
2021/05/01 05:25:28;;;;;;;29.05;20.25;;;8.10;99.90;;;;;;4194402;28;20048;-69
2021/05/01 05:27:29;;;;;;;29.38;20.27;;;8.10;99.90;;;;;;4194211;28;20547;-69
2021/05/01 05:29:31;;;;;;;29.67;20.27;;;8.10;99.90;;;;;;4194620;28;20033;-69
2021/05/01 05:31:31;;;;;;;26.80;20.67;;;8.10;99.90;;;;;;4194167;28;20050;-69
2021/05/01 05:33:32;;;;;;;26.92;18.95;;;8.20;99.90;;;;;;4194776;28;20327;-69
2021/05/01 05:35:32;;;;;;;28.52;20.42;;;8.20;99.90;;;;;;4186498;28;20025;-69
2021/05/01 05:37:33;;;;;;;26.17;19.15;;;8.20;99.90;;;;;;4188889;28;20295;-69
2021/05/01 05:39:34;;;;;;;29.35;19.50;;;8.20;99.90;;;;;;4194623;28;20071;-69
2021/05/01 05:41:34;;;;;;;30.20;21.65;;;8.20;99.90;;;;;;4192728;28;20060;-69
2021/05/01 05:43:35;;;;;;;35.20;22.42;;;8.20;99.90;;;;;;4194488;28;20031;-69
2021/05/01 05:45:37;;;;;;;29.23;20.95;;;8.20;99.90;;;;;;4194104;28;20073;-69
2021/05/01 05:47:38;;;;;;;32.15;21.45;;;8.20;99.90;;;;;;4194158;28;20116;-69
2021/05/01 05:49:39;;;;;;;27.10;20.23;;;8.20;99.90;;;;;;4192486;28;20503;-69
2021/05/01 05:51:39;;;;;;;32.90;21.02;;;8.30;99.90;;;;;;4194087;28;20032;-69
2021/05/01 05:53:40;;;;;;;33.20;22.35;;;8.30;99.90;;;;;;4193925;28;20024;-69
2021/05/01 05:55:40;;;;;;;30.92;21.55;;;8.30;99.90;;;;;;4192568;28;20024;-69
2021/05/01 05:57:48;;;;;;;30.35;20.20;;;8.30;99.90;;;;;;4193703;28;20544;-69
2021/05/01 05:59:48;;;;;;;31.95;22.35;;;8.30;99.90;;;;;;4192472;28;20455;-69
2021/05/01 06:01:52;;;;;;;31.48;20.08;;;8.30;99.90;;;;;;4191631;28;20036;-69
2021/05/01 06:03:55;;;;;;;29.33;20.15;;;8.30;99.90;;;;;;4191867;28;20042;-69
2021/05/01 06:06:01;;;;;;;27.98;19.58;;;8.40;99.90;;;;;;4192502;28;20089;-69
2021/05/01 06:08:06;;;;;;;31.95;20.38;;;8.40;99.90;;;;;;4194425;28;20157;-69
2021/05/01 06:10:09;;;;;;;30.95;20.00;;;8.40;99.90;;;;;;4192321;28;20044;-69
2021/05/01 06:12:11;;;;;;;28.33;19.52;;;8.50;99.90;;;;;;4194384;28;20047;-69
2021/05/01 06:14:17;;;;;;;27.10;18.60;;;8.50;99.90;;;;;;4194702;28;20535;-69
2021/05/01 06:16:20;;;;;;;26.33;17.23;;;8.50;99.90;;;;;;4188207;28;20251;-69
2021/05/01 06:18:23;;;;;;;22.75;16.27;;;8.60;99.90;;;;;;4193900;28;20089;-69
2021/05/01 06:20:25;;;;;;;21.92;16.15;;;8.60;99.90;;;;;;4193277;28;20043;-69
2021/05/01 06:22:26;;;;;;;24.70;17.30;;;8.60;99.90;;;;;;4174898;28;20043;-70
2021/05/01 06:24:27;;;;;;;26.98;17.52;;;8.70;99.90;;;;;;4188934;28;20539;-69
2021/05/01 06:26:28;;;;;;;23.90;16.55;;;8.70;99.90;;;;;;4193965;28;20561;-69
2021/05/01 06:28:29;;;;;;;25.40;17.77;;;8.80;99.90;;;;;;4191894;28;20515;-69
2021/05/01 06:30:29;;;;;;;29.20;19.73;;;8.90;99.90;;;;;;4191987;28;20024;-69
2021/05/01 06:32:30;;;;;;;28.08;16.80;;;8.90;99.90;;;;;;4193197;28;20040;-69
2021/05/01 06:34:32;;;;;;;23.73;16.90;;;9.00;99.90;;;;;;4192903;28;20086;-69
2021/05/01 06:36:35;;;;;;;27.15;17.67;;;9.00;99.90;;;;;;4192697;28;20032;-69
2021/05/01 06:38:36;;;;;;;;;;;9.10;99.90;;;;;;4194119;28;20447;-69
2021/05/01 06:40:41;;;;;;;26.30;15.40;;;9.10;99.90;;;;;;4193730;28;19913;-69
2021/05/01 06:42:55;;;;;;;21.38;14.55;;;9.10;99.90;;;;;;4194017;28;20050;-69
2021/05/01 06:45:03;;;;;;;22.23;15.20;;;9.20;99.90;;;;;;4179512;28;20033;-69
2021/05/01 06:47:05;;;;;;;24.00;15.80;;;9.30;99.90;;;;;;4192690;28;20037;-69
2021/05/01 06:49:11;;;;;;;21.33;14.88;;;9.40;99.90;;;;;;4193260;28;20032;-69
2021/05/01 06:51:12;;;;;;;22.00;14.77;;;9.40;99.90;;;;;;4191077;28;20101;-69
2021/05/01 06:53:23;;;;;;;18.98;13.40;;;9.50;99.90;;;;;;4192648;28;20528;-69
2021/05/01 06:55:26;;;;;;;20.55;13.45;;;9.60;99.90;;;;;;4191221;28;20037;-69
2021/05/01 06:57:27;;;;;;;24.92;14.68;;;9.60;99.90;;;;;;4193392;28;20112;-69
2021/05/01 06:59:29;;;;;;;20.55;13.38;;;9.60;99.90;;;;;;4192891;28;20036;-69
2021/05/01 07:01:30;;;;;;;19.25;13.45;;;9.60;99.90;;;;;;4192450;28;20078;-69
2021/05/01 07:03:45;;;;;;;22.83;12.85;;;9.70;99.90;;;;;;4191928;28;20067;-69
2021/05/01 07:05:49;;;;;;;22.65;14.52;;;9.70;99.90;;;;;;4191727;28;20725;-69
2021/05/01 07:07:50;;;;;;;19.13;12.43;;;9.70;99.90;;;;;;4190228;28;20060;-69
2021/05/01 07:09:51;;;;;;;17.60;12.48;;;9.80;99.90;;;;;;4189413;28;20147;-69
2021/05/01 07:11:53;;;;;;;17.95;11.95;;;9.90;99.90;;;;;;4191822;28;20503;-69
2021/05/01 07:13:54;;;;;;;21.85;13.18;;;9.90;99.90;;;;;;4193103;28;20073;-69
2021/05/01 07:16:01;;;;;;;19.10;12.65;;;9.90;99.90;;;;;;4191198;28;20085;-69
2021/05/01 07:18:02;;;;;;;19.40;11.88;;;10.00;99.90;;;;;;4193431;28;20552;-70
2021/05/01 07:20:10;;;;;;;18.90;11.23;;;10.00;99.90;;;;;;4190769;28;20025;-70
2021/05/01 07:22:12;;;;;;;21.55;13.23;;;10.00;99.90;;;;;;4187799;28;20522;-73
2021/05/01 07:24:14;;;;;;;26.95;14.57;;;10.00;99.90;;;;;;4189094;28;20041;-67
2021/05/01 07:26:21;;;;;;;24.35;13.68;;;10.10;99.90;;;;;;4188247;28;20032;-68
2021/05/01 07:28:26;;;;;;;18.92;13.73;;;10.10;99.90;;;;;;4183841;28;20498;-68
2021/05/01 07:30:29;;;;;;;18.70;12.50;;;10.10;99.90;;;;;;4190819;28;20166;-68
2021/05/01 07:32:33;;;;;;;22.15;13.15;;;10.20;99.90;;;;;;4191912;28;20041;-68
2021/05/01 07:34:34;;;;;;;22.67;14.38;;;10.30;99.90;;;;;;4191337;28;20032;-68
2021/05/01 07:36:41;;;;;;;20.77;13.25;;;10.30;99.90;;;;;;4191953;28;20063;-68
2021/05/01 07:38:43;;;;;;;18.48;11.90;;;10.40;99.90;;;;;;4190867;28;20145;-68
2021/05/01 07:40:44;;;;;;;;;;;10.40;99.90;;;;;;4191141;28;20063;-68
2021/05/01 07:42:45;;;;;;;18.75;11.73;;;10.40;99.90;;;;;;4189619;28;19924;-67
2021/05/01 07:45:06;;;;;;;22.08;13.23;;;10.50;99.90;;;;;;4180216;28;20059;-67
2021/05/01 07:47:28;;;;;;;21.85;13.80;;;10.50;99.90;;;;;;4190479;28;20039;-67
2021/05/01 07:49:30;;;;;;;20.25;12.95;;;10.50;99.90;;;;;;4191611;28;20039;-67
2021/05/01 07:51:34;;;;;;;20.60;11.98;;;10.50;99.90;;;;;;4189906;28;20036;-67
2021/05/01 07:53:35;;;;;;;17.58;12.75;;;10.60;99.90;;;;;;4190706;28;20033;-67
2021/05/01 07:55:37;;;;;;;18.35;12.50;;;10.60;99.90;;;;;;4190929;28;20083;-67
2021/05/01 07:57:38;;;;;;;16.63;12.13;;;10.70;99.90;;;;;;4190706;28;20076;-67
2021/05/01 07:59:39;;;;;;;18.52;12.05;;;10.70;99.90;;;;;;4189180;28;20563;-67
2021/05/01 08:01:42;;;;;;;20.05;11.75;;;10.80;99.90;;;;;;4191393;28;20044;-67
2021/05/01 08:03:42;;;;;;;16.88;11.05;;;10.90;99.90;;;;;;4191127;28;20055;-67
2021/05/01 08:05:43;;;;;;;18.08;11.98;;;10.90;99.90;;;;;;4190925;28;20562;-67
2021/05/01 08:07:44;;;;;;;16.98;11.57;;;11.00;99.90;;;;;;4191459;28;20032;-67
2021/05/01 08:09:45;;;;;;;15.38;11.32;;;11.00;99.90;;;;;;4190534;28;20032;-67
2021/05/01 08:11:46;;;;;;;18.00;11.25;;;11.10;99.90;;;;;;4189982;28;20067;-67
2021/05/01 08:13:47;;;;;;;18.20;12.10;;;11.20;99.90;;;;;;4191689;28;20110;-67
2021/05/01 08:15:47;;;;;;;17.30;11.90;;;11.30;99.90;;;;;;4191034;28;20465;-67
2021/05/01 08:17:48;;;;;;;16.80;11.68;;;11.40;99.90;;;;;;4188110;28;20060;-67
2021/05/01 08:20:09;;;;;;;15.25;11.43;;;11.40;99.90;;;;;;4188034;28;20094;-68
2021/05/01 08:22:29;;;;;;;15.77;11.85;;;11.40;99.90;;;;;;4188395;28;20043;-68
2021/05/01 08:24:29;;;;;;;13.55;10.40;;;11.30;99.90;;;;;;4189304;28;20063;-68
2021/05/01 08:26:31;;;;;;;16.85;11.90;;;11.30;99.90;;;;;;4171752;28;20116;-68
2021/05/01 08:28:32;;;;;;;16.27;11.55;;;11.40;99.90;;;;;;4188716;28;20479;-68
2021/05/01 08:30:33;;;;;;;21.35;12.13;;;11.50;99.90;;;;;;4171929;28;20628;-68
2021/05/01 08:32:34;;;;;;;18.73;11.30;;;11.60;99.90;;;;;;4185859;28;20064;-68
2021/05/01 08:34:35;;;;;;;17.27;12.23;;;11.60;99.90;;;;;;4190133;28;20039;-68
2021/05/01 08:36:36;;;;;;;18.05;11.65;;;11.80;99.90;;;;;;4187220;28;20025;-68
2021/05/01 08:38:37;;;;;;;17.10;11.23;;;11.80;99.90;;;;;;4190082;28;20075;-68
2021/05/01 08:40:37;;;;;;;16.65;10.52;;;11.80;99.90;;;;;;4189630;28;20043;-68
2021/05/01 08:42:44;;;;;;;16.30;10.60;;;11.90;99.90;;;;;;4189048;28;20035;-68
2021/05/01 08:44:45;;;;;;;13.13;9.82;;;11.90;99.90;;;;;;4190459;28;20036;-68
2021/05/01 08:46:47;;;;;;;13.57;9.77;;;12.00;99.90;;;;;;4190391;28;20052;-68
2021/05/01 08:48:48;;;;;;;11.20;9.15;;;12.00;99.90;;;;;;4190024;28;20036;-68
2021/05/01 08:51:02;;;;;;;13.43;9.43;;;12.10;99.90;;;;;;4189472;28;20631;-68
2021/05/01 08:53:03;;;;;;;18.92;9.70;;;12.20;99.90;;;;;;4186461;28;20044;-68
2021/05/01 08:55:04;;;;;;;15.73;9.02;;;12.30;99.90;;;;;;4191341;28;20445;-68
2021/05/01 08:57:29;;;;;;;13.07;9.13;;;12.40;99.90;;;;;;4191360;28;20041;-68
2021/05/01 08:59:30;;;;;;;10.82;6.97;;;12.60;99.90;;;;;;4191363;28;20128;-68
2021/05/01 09:01:31;;;;;;;10.70;6.93;;;12.70;99.90;;;;;;4192997;28;20744;-69
2021/05/01 09:03:31;;;;;;;11.15;7.70;;;12.80;99.90;;;;;;4193089;28;20028;-68
2021/05/01 09:05:33;;;;;;;14.75;9.05;;;12.90;99.90;;;;;;4193074;28;20086;-69
2021/05/01 09:07:36;;;;;;;11.33;8.33;;;13.00;99.90;;;;;;4192529;28;20037;-69
2021/05/01 09:09:39;;;;;;;12.52;8.25;;;13.20;99.90;;;;;;4192399;28;20037;-68
2021/05/01 09:11:45;;;;;;;11.40;7.35;;;13.20;99.90;;;;;;4192642;28;20036;-68
2021/05/01 09:13:48;;;;;;;15.23;7.88;;;13.20;99.90;;;;;;4192700;28;20029;-68
2021/05/01 09:16:06;;;;;;;10.13;7.18;;;13.10;99.90;;;;;;4191090;28;20127;-68
2021/05/01 09:18:06;;;;;;;11.95;8.05;;;13.10;99.90;;;;;;4191296;28;20033;-68
2021/05/01 09:20:16;;;;;;;8.38;6.72;;;13.20;99.90;;;;;;4192421;28;20531;-68
2021/05/01 09:22:16;;;;;;;12.35;7.93;;;13.20;99.90;;;;;;4191665;28;20036;-68
2021/05/01 09:24:23;;;;;;;10.52;7.50;;;13.20;99.90;;;;;;4192123;28;20068;-66
2021/05/01 09:26:53;;;;;;;12.18;7.70;;;13.20;99.90;;;;;;4191501;28;20182;-66
2021/05/01 09:28:53;;;;;;;11.57;7.05;;;13.30;99.90;;;;;;4182066;28;20036;-66
2021/05/01 09:31:04;;;;;;;11.57;7.97;;;13.30;99.90;;;;;;4191862;28;20442;-65
2021/05/01 09:33:38;;;;;;;9.35;6.43;;;13.30;99.90;;;;;;4191950;28;20044;-65
2021/05/01 09:35:39;;;;;;;10.63;5.82;;;13.30;99.90;;;;;;4156798;28;20041;-66
2021/05/01 09:37:41;;;;;;;11.20;6.75;;;13.30;99.50;;;;;;4193240;28;20040;-66
2021/05/01 09:39:53;;;;;;;9.25;5.90;;;13.40;99.90;;;;;;4192737;28;20146;-66
2021/05/01 09:41:55;;;;;;;11.05;6.47;;;13.50;99.50;;;;;;4190935;28;20094;-66
2021/05/01 09:44:05;;;;;;;7.32;6.22;;;13.60;98.90;;;;;;4193015;28;20039;-66
2021/05/01 09:46:15;;;;;;;9.85;6.22;;;13.70;97.90;;;;;;4192326;28;20048;-66
2021/05/01 09:48:19;;;;;;;13.13;7.30;;;13.70;98.40;;;;;;4192766;28;20487;-66
2021/05/01 09:50:24;;;;;;;10.35;6.35;;;13.80;97.70;;;;;;4191589;28;20616;-66
2021/05/01 09:52:25;;;;;;;9.30;6.03;;;13.70;95.30;;;;;;4190239;28;20044;-69
2021/05/01 09:54:34;;;;;;;10.93;7.25;;;13.80;94.70;;;;;;4191432;28;20148;-66
2021/05/01 09:56:35;;;;;;;9.90;5.85;;;13.70;95.30;;;;;;4190581;28;20039;-66
2021/05/01 09:58:51;;;;;;;10.18;7.03;;;13.70;93.70;;;;;;4190227;28;20024;-66
2021/05/01 10:00:53;;;;;;;12.27;7.30;;;13.70;94.30;;;;;;4191093;28;20043;-69
2021/05/01 10:02:54;;;;;;;;;;;13.60;97.00;;;;;;4192625;28;20131;-66
2021/05/01 10:05:05;;;;;;;11.05;6.18;;;13.70;95.20;;;;;;4191099;28;19916;-66
2021/05/01 10:07:09;;;;;;;7.05;5.50;;;13.80;95.20;;;;;;4189219;28;20064;-66
2021/05/01 10:09:10;;;;;;;7.22;5.45;;;13.80;94.10;;;;;;4190946;28;20044;-66
2021/05/01 10:11:13;;;;;;;10.15;5.40;;;13.90;90.60;;;;;;4192475;28;20491;-67
2021/05/01 10:13:15;;;;;;;7.70;5.63;;;13.90;89.30;;;;;;4190831;28;20401;-66
2021/05/01 10:15:20;;;;;;;8.95;6.60;;;13.90;90.50;;;;;;4197255;28;20139;-67
2021/05/01 10:17:21;;;;;;;9.68;6.25;;;13.90;91.30;;;;;;4191023;28;20033;-66
2021/05/01 10:19:22;;;;;;;13.30;7.22;;;13.90;92.70;;;;;;4191278;28;20119;-66
2021/05/01 10:21:26;;;;;;;9.45;6.68;;;14.00;93.00;;;;;;4190770;28;20048;-66
2021/05/01 10:23:27;;;;;;;11.77;6.50;;;14.00;94.60;;;;;;4190651;28;20036;-66
2021/05/01 10:25:29;;;;;;;7.93;5.88;;;13.90;93.90;;;;;;4189598;28;20051;-66
2021/05/01 10:27:40;;;;;;;;;;;13.80;92.00;;;;;;4189974;28;20039;-66